createdAt,value
2022-08-03T00:01:40.515Z,98033.31
2022-08-03T00:06:43.003Z,98038.53
2022-08-03T00:11:45.456Z,98034.78
2022-08-03T00:16:47.904Z,98033.53
2022-08-03T00:21:50.350Z,98032.91
2022-08-03T00:26:53.040Z,98036.13
2022-08-03T00:32:00.330Z,98028.22
2022-08-03T00:37:03.117Z,98026.59
2022-08-03T00:42:06.954Z,98021.84
2022-08-03T00:47:10.371Z,98026.47
2022-08-03T00:52:15.413Z,98023.13
2022-08-03T00:57:17.831Z,98026.72
2022-08-03T01:02:20.303Z,98017.19
2022-08-03T01:07:44.104Z,98015.28
2022-08-03T01:14:00.947Z,98013.25
2022-08-03T01:19:05.300Z,98011.28
2022-08-03T01:24:23.253Z,98012.91
2022-08-03T01:29:43.526Z,98009.47
2022-08-03T01:35:02.369Z,97998.72
2022-08-03T01:40:08.079Z,98001.69
2022-08-03T01:45:13.557Z,97990.19
2022-08-03T01:50:19.148Z,97990.03
2022-08-03T01:55:25.136Z,97988.81
2022-08-03T02:00:28.799Z,97992.50
2022-08-03T02:05:34.030Z,97987.59
2022-08-03T02:10:37.746Z,97984.56
2022-08-03T02:15:41.398Z,97991.28
2022-08-03T02:20:46.431Z,97991.16
2022-08-03T02:25:57.775Z,97987.69
2022-08-03T02:31:11.715Z,97988.47
2022-08-03T02:36:16.902Z,97992.47
2022-08-03T02:41:29.584Z,97990.97
2022-08-03T02:46:36.101Z,97998.25
2022-08-03T02:51:40.280Z,97988.97
2022-08-03T02:56:45.274Z,97980.97
2022-08-03T03:01:48.553Z,97987.78
2022-08-03T03:06:52.536Z,97980.91
2022-08-03T03:11:57.692Z,97984.78
2022-08-03T03:17:01.784Z,97980.44
2022-08-03T03:22:07.195Z,97981.47
2022-08-03T03:27:10.285Z,97981.91
2022-08-03T03:32:19.846Z,97972.25
2022-08-03T03:37:22.665Z,97979.25
2022-08-03T03:42:26.203Z,97977.34
2022-08-03T03:47:32.712Z,97974.88
2022-08-03T03:52:36.565Z,97966.91
2022-08-03T03:57:39.019Z,97971.84
2022-08-03T04:02:41.871Z,97978.53
2022-08-03T04:08:31.045Z,97975.41
2022-08-03T04:13:38.572Z,97973.94
2022-08-03T04:18:44.856Z,97980.44
2022-08-03T04:23:51.415Z,97986.72
2022-08-03T04:28:55.347Z,97981.50
2022-08-03T04:33:59.014Z,97989.66
2022-08-03T04:39:08.628Z,97996.25
2022-08-03T04:44:13.816Z,97996.59
2022-08-03T04:49:16.958Z,98000.84
2022-08-03T04:54:19.503Z,98006.44
2022-08-03T04:59:21.946Z,98008.72
2022-08-03T05:04:24.381Z,98017.50
2022-08-03T05:09:52.247Z,98012.63
2022-08-03T05:14:49.355Z,98009.72
2022-08-03T05:19:51.976Z,98007.69
2022-08-03T05:24:54.439Z,98011.53
2022-08-03T05:29:57.110Z,98015.31
2022-08-03T05:36:01.934Z,98012.22
2022-08-03T05:40:56.793Z,98013.50
2022-08-03T05:46:12.038Z,98020.06
2022-08-03T05:51:15.559Z,98015.22
2022-08-03T05:56:21.640Z,98013.41
2022-08-03T06:01:24.206Z,98010.13
2022-08-03T06:06:31.893Z,98014.44
2022-08-03T06:11:34.687Z,98015.31
2022-08-03T06:16:37.199Z,98014.75
2022-08-03T06:21:39.877Z,98019.47
2022-08-03T06:26:42.436Z,98016.47
2022-08-03T06:31:44.834Z,98009.88
2022-08-03T06:36:48.648Z,98014.53
2022-08-03T06:41:51.538Z,98016.91
2022-08-03T06:46:54.045Z,98016.16
2022-08-03T06:52:05.293Z,98020.34
2022-08-03T06:57:11.605Z,98026.41
2022-08-03T07:02:18.296Z,98030.47
2022-08-03T07:07:22.082Z,98025.75
2022-08-03T07:12:24.834Z,98030.78
2022-08-03T07:17:27.553Z,98025.81
2022-08-03T07:22:30.059Z,98025.72
2022-08-03T07:27:33.790Z,98022.78
2022-08-03T07:32:36.384Z,98033.69
2022-08-03T07:37:54.736Z,98022.41
2022-08-03T07:42:58.411Z,98030.88
2022-08-03T07:48:01.263Z,98027.84
2022-08-03T07:53:03.666Z,98017.31
2022-08-03T07:58:09.827Z,98012.19
2022-08-03T08:03:13.314Z,98012.91
2022-08-03T08:08:15.874Z,98016.09
2022-08-03T08:13:18.370Z,98012.50
2022-08-03T08:18:20.939Z,98001.84
2022-08-03T08:23:42.700Z,98011.41
2022-08-03T08:28:46.559Z,98021.50
2022-08-03T08:34:03.565Z,98008.22
2022-08-03T08:39:06.951Z,98008.84
2022-08-03T08:44:10.306Z,98008.91
2022-08-03T08:49:17.300Z,98015.50
2022-08-03T08:54:22.705Z,98003.84
2022-08-03T08:59:26.326Z,98011.19
2022-08-03T09:04:31.488Z,98015.09
2022-08-03T09:10:11.058Z,98005.56
2022-08-03T09:15:15.120Z,98006.06
2022-08-03T09:20:20.716Z,97998.47
2022-08-03T09:25:37.707Z,97986.25
2022-08-03T09:30:42.343Z,97993.88
2022-08-03T09:35:55.285Z,97995.38
2022-08-03T09:41:00.944Z,97988.75
2022-08-03T09:46:05.295Z,98001.31
2022-08-03T09:51:13.152Z,98002.13
2022-08-03T09:56:47.613Z,97990.25
2022-08-03T10:01:50.077Z,97989.16
2022-08-03T10:07:06.221Z,97980.84
2022-08-03T10:12:13.558Z,97976.56
2022-08-03T10:17:16.734Z,97974.16
2022-08-03T10:22:32.505Z,97969.50
2022-08-03T10:27:40.740Z,97967.66
2022-08-03T10:32:57.660Z,97961.50
2022-08-03T10:38:03.289Z,97954.34
2022-08-03T10:43:18.823Z,97947.41
2022-08-03T10:48:22.193Z,97951.25
2022-08-03T10:53:54.818Z,97946.75
2022-08-03T10:58:58.251Z,97953.88
2022-08-03T11:04:16.963Z,97938.56
2022-08-03T11:09:19.805Z,97932.81
2022-08-03T11:14:22.741Z,97942.66
2022-08-03T11:19:57.520Z,97928.75
2022-08-03T11:25:01.795Z,97932.34
2022-08-03T11:30:29.208Z,97925.41
2022-08-03T11:35:36.105Z,97915.38
2022-08-03T11:40:47.422Z,97911.75
2022-08-03T11:46:04.706Z,97914.63
2022-08-03T11:51:18.753Z,97919.13
2022-08-03T11:56:21.415Z,97907.81
2022-08-03T12:01:24.877Z,97898.72
2022-08-03T12:06:27.596Z,97895.56
2022-08-03T12:11:30.737Z,97898.19
2022-08-03T12:16:33.253Z,97889.94
2022-08-03T12:21:45.556Z,97892.66
2022-08-03T12:27:03.193Z,97883.88
2022-08-03T12:32:05.852Z,97880.44
2022-08-03T12:37:22.301Z,97878.53
2022-08-03T12:42:36.986Z,97875.09
2022-08-03T12:48:02.195Z,97869.03
2022-08-03T12:53:08.016Z,97860.75
2022-08-03T12:58:33.818Z,97857.91
2022-08-03T13:03:50.394Z,97841.22
2022-08-03T13:09:08.459Z,97851.16
2022-08-03T13:14:16.723Z,97842.75
2022-08-03T13:19:22.746Z,97842.97
2022-08-03T13:24:25.329Z,97849.19
2022-08-03T13:29:27.850Z,97835.16
2022-08-03T13:34:30.395Z,97837.47
2022-08-03T13:39:32.933Z,97838.63
2022-08-03T13:44:38.724Z,97829.28
2022-08-03T13:49:41.159Z,97828.97
2022-08-03T13:54:46.185Z,97820.88
2022-08-03T13:59:50.842Z,97817.00
2022-08-03T14:04:54.733Z,97809.31
2022-08-03T14:09:57.223Z,97800.88
2022-08-03T14:15:01.519Z,97795.38
2022-08-03T14:20:36.669Z,97797.31
2022-08-03T14:25:31.006Z,97788.41
2022-08-03T14:30:46.191Z,97789.41
2022-08-03T14:35:49.352Z,97789.72
2022-08-03T14:40:53.180Z,97799.41
2022-08-03T14:45:55.628Z,97792.41
2022-08-03T14:50:58.295Z,97779.03
2022-08-03T14:56:00.923Z,97779.09
2022-08-03T15:01:03.651Z,97762.78
2022-08-03T15:06:26.113Z,97770.41
2022-08-03T15:11:28.652Z,97759.22
2022-08-03T15:16:32.089Z,97760.97
2022-08-03T15:21:47.351Z,97751.31
2022-08-03T15:26:52.351Z,97739.00
2022-08-03T15:31:54.862Z,97738.50
2022-08-03T15:36:57.295Z,97748.13
2022-08-03T15:41:59.837Z,97737.94
2022-08-03T15:47:02.330Z,97740.84
2022-08-03T15:52:05.847Z,97741.13
2022-08-03T15:57:08.351Z,97738.28
2022-08-03T16:02:10.840Z,97730.94
2022-08-03T16:07:15.854Z,97737.00
2022-08-03T16:12:18.478Z,97729.09
2022-08-03T16:17:22.444Z,97723.75
2022-08-03T16:22:26.153Z,97730.63
2022-08-03T16:27:56.822Z,97722.88
2022-08-03T16:32:51.315Z,97709.75
2022-08-03T16:37:56.234Z,97709.69
2022-08-03T16:42:59.390Z,97708.47
2022-08-03T16:48:05.901Z,97704.63
2022-08-03T16:53:12.798Z,97705.94
2022-08-03T16:58:34.223Z,97701.81
2022-08-03T17:03:57.070Z,97707.28
2022-08-03T17:09:03.640Z,97711.19
2022-08-03T17:14:11.841Z,97712.38
2022-08-03T17:19:16.061Z,97708.84
2022-08-03T17:24:41.069Z,97719.59
2022-08-03T17:29:48.574Z,97719.31
2022-08-03T17:34:51.178Z,97714.13
2022-08-03T17:39:59.472Z,97717.25
2022-08-03T17:45:03.795Z,97717.91
2022-08-03T17:50:23.993Z,97728.22
2022-08-03T17:55:56.942Z,97727.84
2022-08-03T18:01:57.446Z,97732.81
2022-08-03T18:06:56.220Z,97742.19
2022-08-03T18:12:05.035Z,97738.28
2022-08-03T18:17:15.633Z,97744.25
2022-08-03T18:22:21.883Z,97746.28
2022-08-03T18:27:45.458Z,97745.81
2022-08-03T18:33:00.623Z,97741.84
2022-08-03T18:38:03.992Z,97748.34
2022-08-03T18:43:12.848Z,97742.09
2022-08-03T18:48:27.395Z,97743.63
2022-08-03T18:54:02.471Z,97739.03
2022-08-03T18:59:11.608Z,97743.31
2022-08-03T19:04:24.303Z,97740.91
2022-08-03T19:09:54.622Z,97749.56
2022-08-03T19:15:03.697Z,97750.34
2022-08-03T19:20:09.161Z,97756.75
2022-08-03T19:25:12.240Z,97758.09
2022-08-03T19:30:35.838Z,97760.34
2022-08-03T19:35:55.384Z,97757.59
2022-08-03T19:41:03.768Z,97764.91
2022-08-03T19:46:12.533Z,97765.88
2022-08-03T19:51:16.810Z,97765.16
2022-08-03T19:56:24.197Z,97762.72
2022-08-03T20:01:28.214Z,97768.56
2022-08-03T20:06:31.555Z,97775.88
2022-08-03T20:11:45.039Z,97762.59
2022-08-03T20:16:48.164Z,97766.72
2022-08-03T20:21:54.711Z,97765.03
2022-08-03T20:27:01.410Z,97765.59
2022-08-03T20:32:04.623Z,97764.25
2022-08-03T20:37:09.529Z,97764.09
2022-08-03T20:42:14.852Z,97767.25
2022-08-03T20:47:24.390Z,97773.28
2022-08-03T20:52:27.729Z,97777.94
2022-08-03T20:57:33.057Z,97761.09
2022-08-03T21:02:36.097Z,97766.53
2022-08-03T21:08:05.088Z,97768.41
2022-08-03T21:13:31.713Z,97770.06
2022-08-03T21:18:42.262Z,97765.03
2022-08-03T21:23:49.639Z,97775.31
2022-08-03T21:28:54.534Z,97764.09
2022-08-03T21:34:00.151Z,97768.59
2022-08-03T21:39:04.973Z,97755.13
2022-08-03T21:44:08.479Z,97761.84
2022-08-03T21:49:51.855Z,97752.88
2022-08-03T21:54:41.227Z,97757.72
2022-08-03T21:59:52.032Z,97757.72
2022-08-03T22:04:55.256Z,97760.72
2022-08-03T22:09:59.876Z,97758.47
2022-08-03T22:15:05.194Z,97760.72
2022-08-03T22:20:10.323Z,97767.06
2022-08-03T22:25:15.404Z,97761.66
2022-08-03T22:30:19.364Z,97761.41
2022-08-03T22:35:23.984Z,97768.81
2022-08-03T22:40:27.873Z,97764.66
2022-08-03T22:45:45.801Z,97771.03
2022-08-03T22:50:54.246Z,97764.66
2022-08-03T22:55:57.344Z,97772.91
2022-08-03T23:01:06.693Z,97773.44
2022-08-03T23:06:09.634Z,97773.88
2022-08-03T23:11:13.126Z,97777.19
2022-08-03T23:16:28.897Z,97779.59
2022-08-03T23:21:53.327Z,97785.66
2022-08-03T23:26:57.238Z,97785.25
2022-08-03T23:32:02.231Z,97785.78
2022-08-03T23:37:06.579Z,97782.91
2022-08-03T23:42:10.996Z,97783.91
2022-08-03T23:47:14.199Z,97793.47
2022-08-03T23:52:30.190Z,97794.78
2022-08-03T23:57:43.260Z,97783.63
